Time;durP1;ratioP1;P1;durP2;ratioP2;P2;SDS_P1;SDS_P2;PMS_P1;PMS_P2;Temp;Humidity;BMP_temperature;BMP_pressure;BME280_temperature;BME280_humidity;BME280_pressure;Samples;Min_cycle;Max_cycle;Signal;HPM_P1;HPM_P2
2023/10/05 00:02:08;;;;;;;5.60;2.65;;;13.70;99.90;;;;;;4976395;28;20054;-61
2023/10/05 00:04:41;;;;;;;6.35;2.60;;;13.70;99.90;;;;;;4992167;28;20069;-62
2023/10/05 00:07:19;;;;;;;9.68;3.10;;;13.80;99.90;;;;;;4976547;28;20129;-63
2023/10/05 00:09:46;;;;;;;8.40;2.63;;;13.70;99.90;;;;;;5009685;28;20470;-61
2023/10/05 00:12:19;;;;;;;7.28;2.50;;;13.70;99.90;;;;;;5009649;28;20050;-61
2023/10/05 00:15:13;;;;;;;7.65;2.33;;;13.70;99.90;;;;;;5009470;28;20049;-62
2023/10/05 00:17:49;;;;;;;5.82;2.28;;;13.80;99.90;;;;;;5009278;28;20054;-62
2023/10/05 00:20:24;;;;;;;8.52;2.70;;;13.70;99.90;;;;;;5009925;28;20390;-63
2023/10/05 00:22:51;;;;;;;7.50;2.50;;;13.80;99.90;;;;;;5009807;28;20054;-61
2023/10/05 00:25:18;;;;;;;10.27;3.17;;;13.70;99.90;;;;;;4992216;28;20240;-61
2023/10/05 00:27:45;;;;;;;12.77;3.35;;;13.70;99.90;;;;;;5011213;28;20128;-62
2023/10/05 00:30:16;;;;;;;9.32;2.63;;;13.70;99.90;;;;;;5012831;28;20045;-62
2023/10/05 00:32:47;;;;;;;8.02;2.55;;;13.70;99.90;;;;;;4996107;28;20427;-62
2023/10/05 00:35:26;;;;;;;5.35;2.40;;;13.70;99.90;;;;;;5012691;28;20356;-60
2023/10/05 00:38:04;;;;;;;4.53;2.40;;;13.70;99.90;;;;;;5012615;28;20054;-62
2023/10/05 00:40:37;;;;;;;6.88;2.72;;;13.70;99.90;;;;;;5013175;28;20058;-62
2023/10/05 00:43:27;;;;;;;4.45;2.70;;;13.80;99.90;;;;;;4996549;28;20096;-63
2023/10/05 00:45:58;;;;;;;6.82;2.67;;;13.80;99.90;;;;;;5012431;28;20477;-61
2023/10/05 00:48:29;;;;;;;6.80;3.05;;;13.80;99.90;;;;;;4995017;28;20057;-62
2023/10/05 00:50:59;;;;;;;9.30;2.83;;;13.80;99.90;;;;;;5013890;28;20677;-62
2023/10/05 00:53:31;;;;;;;7.40;2.67;;;13.80;99.90;;;;;;4995619;28;20530;-61
2023/10/05 00:56:07;;;;;;;7.43;3.00;;;13.80;99.90;;;;;;4992590;28;20050;-62
2023/10/05 00:58:42;;;;;;;6.80;2.85;;;13.80;99.90;;;;;;4996879;28;20137;-61
2023/10/05 01:01:15;;;;;;;8.13;2.53;;;13.80;99.90;;;;;;4996077;28;20132;-62
2023/10/05 01:04:04;;;;;;;9.07;2.60;;;13.90;99.90;;;;;;5012858;28;20057;-59
2023/10/05 01:06:39;;;;;;;8.13;2.58;;;13.80;99.90;;;;;;4993246;28;20138;-62
2023/10/05 01:09:55;;;;;;;7.00;3.05;;;13.80;99.90;;;;;;4993374;28;20054;-63
2023/10/05 01:15:05;;;;;;;8.05;2.58;;;13.80;99.90;;;;;;4996657;28;20046;-62
2023/10/05 01:17:30;;;;;;;6.80;2.70;;;13.80;99.90;;;;;;5011565;28;20368;-62
2023/10/05 01:23:01;;;;;;;5.50;2.28;;;13.80;99.90;;;;;;4999706;28;20462;-60
2023/10/05 01:25:27;;;;;;;6.75;2.85;;;13.80;99.90;;;;;;4994705;28;20392;-63
2023/10/05 01:27:54;;;;;;;10.52;3.75;;;13.70;99.90;;;;;;4977771;28;20430;-63
2023/10/05 01:30:22;;;;;;;5.88;3.05;;;13.70;99.90;;;;;;4994506;28;20049;-61
2023/10/05 01:32:54;;;;;;;8.45;2.78;;;13.60;99.90;;;;;;4995238;28;20050;-62
2023/10/05 01:35:24;;;;;;;8.50;3.08;;;13.70;99.90;;;;;;5011802;28;20050;-62
2023/10/05 01:37:52;;;;;;;7.50;2.65;;;13.60;99.90;;;;;;4993938;28;20061;-62
2023/10/05 01:40:25;;;;;;;6.95;3.25;;;13.60;99.90;;;;;;4981609;28;20088;-61
2023/10/05 01:42:55;;;;;;;7.35;2.97;;;13.60;99.90;;;;;;4975009;28;20137;-61
2023/10/05 01:45:27;;;;;;;7.75;2.75;;;13.60;99.90;;;;;;4974697;28;20047;-62
2023/10/05 01:48:04;;;;;;;7.45;2.80;;;13.50;99.90;;;;;;4976216;28;20069;-61
2023/10/05 01:50:32;;;;;;;7.00;2.70;;;13.50;99.90;;;;;;4960076;28;20047;-62
2023/10/05 01:53:07;;;;;;;6.88;2.63;;;13.50;99.90;;;;;;4975248;28;20046;-61
2023/10/05 01:55:39;;;;;;;7.85;2.80;;;13.50;99.90;;;;;;4974727;28;20416;-61
2023/10/05 01:58:08;;;;;;;8.55;2.80;;;13.50;99.90;;;;;;4992102;28;20054;-62
2023/10/05 02:00:37;;;;;;;7.82;3.13;;;13.50;99.90;;;;;;4992375;28;20061;-60
2023/10/05 02:03:11;;;;;;;6.32;2.90;;;13.60;99.90;;;;;;4974950;28;20069;-62
2023/10/05 02:05:37;;;;;;;7.93;2.85;;;13.50;99.90;;;;;;4974985;28;20054;-62
2023/10/05 02:08:08;;;;;;;7.70;3.05;;;13.60;99.90;;;;;;4991196;28;20534;-63
2023/10/05 02:10:39;;;;;;;9.07;2.92;;;13.50;99.90;;;;;;4959087;28;20320;-61
2023/10/05 02:13:12;;;;;;;7.53;2.97;;;13.50;99.90;;;;;;4992349;28;20061;-62
2023/10/05 02:15:39;;;;;;;8.00;2.70;;;13.60;99.90;;;;;;4991678;28;20058;-62
2023/10/05 02:18:21;;;;;;;10.20;3.13;;;13.50;99.90;;;;;;4991565;28;20050;-61
2023/10/05 02:20:56;;;;;;;7.85;3.15;;;13.50;99.90;;;;;;4991818;28;20046;-61
2023/10/05 02:23:26;;;;;;;7.63;2.90;;;13.60;99.90;;;;;;4974577;28;20549;-60
2023/10/05 02:26:10;;;;;;;8.05;2.70;;;13.50;99.90;;;;;;4992182;28;20050;-61
2023/10/05 02:28:41;;;;;;;10.18;3.00;;;13.60;99.90;;;;;;4974717;28;20046;-63
2023/10/05 02:31:12;;;;;;;9.13;3.17;;;13.50;99.90;;;;;;4974692;28;20054;-62
2023/10/05 02:33:42;;;;;;;6.13;2.95;;;13.50;99.90;;;;;;4974453;28;20046;-61
2023/10/05 02:38:49;;;;;;;6.63;2.80;;;13.50;99.90;;;;;;4973475;28;20428;-61
2023/10/05 02:41:20;;;;;;;7.88;3.03;;;13.40;99.90;;;;;;4958126;28;20076;-62
2023/10/05 02:43:52;;;;;;;6.20;3.22;;;13.50;99.90;;;;;;4974169;28;20054;-62
2023/10/05 02:46:24;;;;;;;7.15;3.17;;;13.40;99.90;;;;;;4990479;28;20085;-62
2023/10/05 02:48:52;;;;;;;8.43;3.30;;;13.50;99.90;;;;;;4991072;28;20121;-60
2023/10/05 02:51:18;;;;;;;6.82;2.80;;;13.50;99.90;;;;;;4958100;28;20391;-62
2023/10/05 02:53:55;;;;;;;6.65;3.05;;;13.40;99.90;;;;;;4974156;28;20057;-63
2023/10/05 02:56:29;;;;;;;7.22;2.85;;;13.30;99.90;;;;;;4958880;28;20050;-62
2023/10/05 02:59:07;;;;;;;7.40;2.78;;;13.40;99.90;;;;;;4975196;28;20440;-63
2023/10/05 03:01:37;;;;;;;6.75;3.20;;;13.40;99.90;;;;;;4991278;28;20094;-63
2023/10/05 03:04:37;;;;;;;10.40;3.38;;;13.30;99.90;;;;;;4990968;28;20050;-63
2023/10/05 03:06:56;;;;;;;6.13;2.78;;;13.30;99.90;;;;;;4975691;28;20058;-63
2023/10/05 03:09:24;;;;;;;6.75;3.70;;;13.30;99.90;;;;;;4973629;28;20042;-62
2023/10/05 03:11:50;;;;;;;6.53;2.63;;;13.30;99.90;;;;;;4973998;28;20050;-62
2023/10/05 03:14:17;;;;;;;9.13;3.03;;;13.30;99.90;;;;;;4990688;28;20050;-62
2023/10/05 03:16:44;;;;;;;6.63;2.78;;;13.30;99.90;;;;;;4972829;28;20112;-64
2023/10/05 03:19:21;;;;;;;6.10;3.08;;;13.40;99.90;;;;;;4973386;28;20046;-62
2023/10/05 03:21:50;;;;;;;7.93;3.10;;;13.40;99.90;;;;;;4975430;28;20054;-64
2023/10/05 03:24:24;;;;;;;8.80;3.03;;;13.40;99.90;;;;;;4990555;28;20133;-63
2023/10/05 03:26:58;;;;;;;10.00;3.72;;;13.40;99.90;;;;;;4989127;28;20332;-62
2023/10/05 03:29:26;;;;;;;6.28;2.80;;;13.40;99.90;;;;;;4973531;28;20065;-63
2023/10/05 03:31:58;;;;;;;6.40;2.90;;;13.40;99.90;;;;;;4990646;28;20142;-63
2023/10/05 03:34:26;;;;;;;10.23;3.10;;;13.40;99.90;;;;;;4957886;28;20117;-63
2023/10/05 03:36:55;;;;;;;9.70;3.38;;;13.40;99.90;;;;;;4989470;28;20105;-63
2023/10/05 03:39:28;;;;;;;10.85;2.92;;;13.40;99.90;;;;;;4978109;28;20057;-62
2023/10/05 03:41:56;;;;;;;7.32;3.13;;;13.40;99.90;;;;;;4993358;28;20057;-61
2023/10/05 03:44:28;;;;;;;6.45;2.95;;;13.40;99.90;;;;;;5008945;28;20439;-62
2023/10/05 03:46:54;;;;;;;8.65;2.90;;;13.30;99.90;;;;;;5010020;28;20056;-63
2023/10/05 03:49:21;;;;;;;9.38;3.00;;;13.30;99.90;;;;;;5009711;28;20145;-61
2023/10/05 03:51:50;;;;;;;9.13;3.10;;;13.40;99.90;;;;;;4992634;28;20042;-63
2023/10/05 03:54:26;;;;;;;8.95;2.80;;;13.30;99.90;;;;;;4976512;28;20057;-62
2023/10/05 03:57:10;;;;;;;6.93;2.95;;;13.30;99.90;;;;;;4992374;28;20050;-62
2023/10/05 03:59:38;;;;;;;7.70;3.03;;;13.40;99.90;;;;;;4992368;28;20112;-63
2023/10/05 04:02:05;;;;;;;7.25;3.17;;;13.20;99.90;;;;;;5011695;28;20054;-62
2023/10/05 04:04:37;;;;;;;10.55;3.63;;;13.30;99.90;;;;;;5013754;28;20518;-62
2023/10/05 04:07:04;;;;;;;8.38;3.30;;;13.30;99.90;;;;;;5013681;28;20077;-62
2023/10/05 04:09:33;;;;;;;8.60;4.20;;;13.30;99.90;;;;;;4996559;28;20046;-63
2023/10/05 04:12:00;;;;;;;10.23;3.25;;;13.40;99.90;;;;;;5014010;28;20046;-63
2023/10/05 04:14:28;;;;;;;9.55;3.10;;;13.40;99.90;;;;;;4996101;28;20046;-62
2023/10/05 04:16:56;;;;;;;7.63;2.95;;;13.30;99.90;;;;;;4997025;28;20049;-62
2023/10/05 04:19:22;;;;;;;10.90;3.40;;;13.30;99.90;;;;;;5013623;28;20540;-62
2023/10/05 04:21:49;;;;;;;9.07;3.22;;;13.30;99.90;;;;;;4996536;28;20085;-62
2023/10/05 04:24:15;;;;;;;6.55;3.08;;;13.30;99.90;;;;;;5013189;28;20483;-63
2023/10/05 04:26:45;;;;;;;8.18;3.00;;;13.30;99.90;;;;;;5012915;28;20060;-63
2023/10/05 04:29:16;;;;;;;5.72;3.05;;;13.20;99.90;;;;;;5013685;28;20053;-62
2023/10/05 04:31:48;;;;;;;10.13;3.80;;;13.20;99.90;;;;;;5013465;28;20061;-61
2023/10/05 04:34:18;;;;;;;8.52;2.90;;;13.10;99.90;;;;;;5013048;28;20061;-63
2023/10/05 04:36:48;;;;;;;9.25;3.50;;;13.10;99.90;;;;;;5012795;28;20451;-62
2023/10/05 04:39:28;;;;;;;8.02;3.03;;;13.10;99.90;;;;;;4992488;28;20070;-62
2023/10/05 04:42:11;;;;;;;10.90;3.00;;;13.10;99.90;;;;;;4993996;28;20050;-61
2023/10/05 04:44:41;;;;;;;9.07;3.22;;;13.10;99.90;;;;;;4993391;28;20050;-63
2023/10/05 04:47:11;;;;;;;7.95;2.75;;;13.10;99.90;;;;;;4976939;28;20046;-62
2023/10/05 04:49:39;;;;;;;9.20;3.15;;;13.20;99.90;;;;;;4993387;28;20359;-61
2023/10/05 04:52:06;;;;;;;13.00;3.50;;;13.10;99.90;;;;;;4993387;28;20054;-64
2023/10/05 04:54:38;;;;;;;9.60;3.15;;;13.10;99.90;;;;;;4973940;28;20153;-63
2023/10/05 04:57:12;;;;;;;4.75;2.88;;;13.10;99.90;;;;;;5007584;28;20050;-61
2023/10/05 04:59:58;;;;;;;9.57;3.35;;;13.10;99.90;;;;;;4993100;28;20061;-61
2023/10/05 05:03:17;;;;;;;6.63;2.85;;;13.20;99.90;;;;;;4993951;28;20046;-64
2023/10/05 05:05:40;;;;;;;7.45;3.03;;;13.20;99.90;;;;;;4983680;28;20363;-63
2023/10/05 05:08:08;;;;;;;9.45;3.05;;;13.20;99.90;;;;;;5003264;28;20347;-63
2023/10/05 05:10:37;;;;;;;11.30;3.03;;;13.20;99.90;;;;;;4974478;28;20283;-62
2023/10/05 05:13:03;;;;;;;8.07;3.40;;;13.20;99.90;;;;;;4991827;28;20058;-63
2023/10/05 05:15:38;;;;;;;8.95;3.20;;;13.20;99.90;;;;;;4992307;28;20046;-63
2023/10/05 05:18:14;;;;;;;7.20;3.10;;;13.20;99.90;;;;;;4976376;28;20412;-63
2023/10/05 05:20:44;;;;;;;11.38;3.45;;;13.20;99.90;;;;;;4992713;28;20117;-64
2023/10/05 05:23:16;;;;;;;7.32;2.90;;;13.20;99.90;;;;;;4992587;28;20275;-62
2023/10/05 05:25:51;;;;;;;9.27;3.53;;;13.20;99.90;;;;;;4991815;28;20058;-62
2023/10/05 05:28:17;;;;;;;7.47;3.60;;;13.20;99.90;;;;;;4975173;28;20061;-62
2023/10/05 05:30:43;;;;;;;10.32;3.28;;;13.20;99.90;;;;;;4992036;28;20046;-63
2023/10/05 05:33:10;;;;;;;9.70;3.75;;;13.20;99.90;;;;;;4992009;28;20050;-63
2023/10/05 05:35:42;;;;;;;9.68;3.72;;;13.20;99.90;;;;;;5007721;28;20050;-63
2023/10/05 05:38:10;;;;;;;9.77;3.05;;;13.20;99.90;;;;;;4991973;28;20057;-62
2023/10/05 05:40:40;;;;;;;8.75;3.15;;;13.20;99.90;;;;;;5006961;28;20133;-62
2023/10/05 05:43:08;;;;;;;7.97;3.25;;;13.30;99.90;;;;;;5007511;28;20053;-64
2023/10/05 05:45:42;;;;;;;11.02;3.28;;;13.20;99.90;;;;;;5010709;28;20069;-61
2023/10/05 05:48:15;;;;;;;8.02;3.63;;;13.20;99.90;;;;;;5010073;28;20050;-62
2023/10/05 05:50:45;;;;;;;9.48;3.95;;;13.20;99.90;;;;;;5011711;28;20057;-62
2023/10/05 05:53:14;;;;;;;9.43;3.22;;;13.30;99.90;;;;;;5010632;28;20042;-60
2023/10/05 05:55:44;;;;;;;10.25;3.58;;;13.30;99.90;;;;;;4994077;28;20068;-61
2023/10/05 05:58:16;;;;;;;6.50;2.75;;;13.40;99.90;;;;;;4981432;28;20042;-60
2023/10/05 06:00:45;;;;;;;9.90;3.25;;;13.30;99.90;;;;;;4992761;28;20061;-63
2023/10/05 06:03:17;;;;;;;8.00;3.50;;;13.40;99.90;;;;;;4974058;28;20149;-63
2023/10/05 06:05:48;;;;;;;9.65;3.45;;;13.40;99.90;;;;;;4993470;28;20065;-63
2023/10/05 06:08:16;;;;;;;7.65;3.03;;;13.30;99.90;;;;;;5008852;28;20443;-62
2023/10/05 06:10:46;;;;;;;12.20;3.70;;;13.40;99.90;;;;;;5011201;28;20078;-62
2023/10/05 06:13:13;;;;;;;6.97;2.97;;;13.40;99.90;;;;;;5011110;28;20463;-62
2023/10/05 06:15:42;;;;;;;7.45;3.08;;;13.40;99.90;;;;;;4994017;28;20364;-62
2023/10/05 06:18:08;;;;;;;9.30;3.08;;;13.50;99.90;;;;;;4977038;28;20050;-63
2023/10/05 06:20:35;;;;;;;10.48;3.85;;;13.50;99.90;;;;;;5011362;28;20045;-64
2023/10/05 06:23:05;;;;;;;8.75;2.92;;;13.50;99.90;;;;;;4978156;28;20177;-63
2023/10/05 06:25:32;;;;;;;10.15;3.60;;;13.60;99.90;;;;;;4994058;28;20050;-63
2023/10/05 06:27:59;;;;;;;9.68;3.58;;;13.50;99.90;;;;;;4992770;28;20060;-63
2023/10/05 06:30:25;;;;;;;9.43;2.92;;;13.50;99.90;;;;;;5011265;28;20057;-62
2023/10/05 06:32:54;;;;;;;8.30;3.10;;;13.60;99.90;;;;;;4993513;28;20438;-63
2023/10/05 06:35:21;;;;;;;10.70;3.35;;;13.60;99.90;;;;;;4993756;28;20081;-64
2023/10/05 06:37:49;;;;;;;12.93;3.10;;;13.70;99.90;;;;;;4993090;28;20390;-64
2023/10/05 06:40:21;;;;;;;9.57;3.53;;;13.60;99.90;;;;;;4977357;28;20502;-63
2023/10/05 06:42:51;;;;;;;12.60;3.42;;;13.70;99.90;;;;;;5011133;28;20137;-62
2023/10/05 06:45:23;;;;;;;13.35;4.03;;;13.70;99.90;;;;;;4993129;28;20058;-63
2023/10/05 06:47:51;;;;;;;9.93;3.28;;;13.70;99.90;;;;;;4975407;28;20413;-63
2023/10/05 06:50:18;;;;;;;12.23;3.60;;;13.80;99.90;;;;;;4994928;28;20457;-62
2023/10/05 06:52:48;;;;;;;9.32;3.72;;;13.90;99.90;;;;;;5011549;28;20046;-64
2023/10/05 06:55:21;;;;;;;10.25;3.92;;;13.80;99.90;;;;;;5009394;28;20050;-63
2023/10/05 06:57:50;;;;;;;8.07;3.33;;;13.90;99.90;;;;;;5011379;28;20344;-62
2023/10/05 07:00:20;;;;;;;10.82;3.80;;;13.90;99.90;;;;;;5011782;28;20053;-64
2023/10/05 07:02:53;;;;;;;8.68;3.35;;;13.90;99.90;;;;;;4993921;28;20108;-64
2023/10/05 07:05:20;;;;;;;13.65;4.00;;;14.00;99.90;;;;;;5011568;28;20076;-62
2023/10/05 07:07:48;;;;;;;14.18;4.07;;;14.00;99.90;;;;;;5010938;28;20092;-62
2023/10/05 07:10:17;;;;;;;11.18;3.75;;;13.90;99.90;;;;;;5011639;28;20053;-63
2023/10/05 07:12:48;;;;;;;9.80;3.83;;;14.00;99.90;;;;;;5011585;28;20131;-63
2023/10/05 07:15:19;;;;;;;11.10;4.25;;;14.00;99.90;;;;;;5011144;28;20046;-63
2023/10/05 07:17:50;;;;;;;7.47;3.15;;;14.10;99.90;;;;;;4977668;28;20469;-62
2023/10/05 07:20:22;;;;;;;11.02;3.90;;;14.10;99.90;;;;;;5011744;28;20058;-63
2023/10/05 07:22:48;;;;;;;7.00;3.78;;;14.20;99.90;;;;;;5008427;28;20506;-63
2023/10/05 07:25:19;;;;;;;9.50;3.72;;;14.30;99.90;;;;;;5010784;28;20076;-64
2023/10/05 07:27:47;;;;;;;8.88;3.15;;;14.20;99.90;;;;;;5011014;28;20401;-62
2023/10/05 07:30:14;;;;;;;10.50;3.55;;;14.30;99.90;;;;;;5012050;28;20108;-63
2023/10/05 07:32:41;;;;;;;14.18;4.53;;;14.30;99.90;;;;;;5011614;28;20053;-66
2023/10/05 07:35:12;;;;;;;11.38;3.38;;;14.30;99.90;;;;;;4994710;28;20058;-64
2023/10/05 07:37:39;;;;;;;10.50;3.88;;;14.40;99.90;;;;;;4993758;28;20148;-64
2023/10/05 07:40:07;;;;;;;9.80;4.22;;;14.40;99.90;;;;;;5011542;28;20064;-63
2023/10/05 07:42:37;;;;;;;11.13;3.40;;;14.50;99.90;;;;;;4994560;28;20478;-63
2023/10/05 07:45:07;;;;;;;12.73;3.95;;;14.50;99.90;;;;;;4955008;28;20062;-64
2023/10/05 07:47:44;;;;;;;10.80;3.33;;;14.60;99.90;;;;;;4974953;28;20084;-64
2023/10/05 07:50:11;;;;;;;7.13;3.53;;;14.70;99.90;;;;;;4992357;28;20061;-64
2023/10/05 07:52:48;;;;;;;9.18;3.58;;;14.80;99.90;;;;;;4990741;28;20062;-63
2023/10/05 07:55:16;;;;;;;11.65;3.30;;;14.80;99.90;;;;;;4999872;28;20065;-64
2023/10/05 07:57:45;;;;;;;7.20;3.10;;;14.90;99.90;;;;;;4975098;28;20435;-64
2023/10/05 08:00:13;;;;;;;9.73;3.05;;;15.00;99.90;;;;;;4974888;28;20422;-64
2023/10/05 08:02:45;;;;;;;9.57;3.53;;;15.00;99.90;;;;;;4992153;28;20050;-64
2023/10/05 08:05:12;;;;;;;9.50;3.08;;;15.00;99.90;;;;;;4982725;28;20073;-64
2023/10/05 08:07:39;;;;;;;8.43;3.30;;;15.10;99.90;;;;;;5011241;28;20053;-63
2023/10/05 08:10:06;;;;;;;5.72;3.55;;;15.20;99.90;;;;;;5011458;28;20090;-63
2023/10/05 08:12:35;;;;;;;10.40;3.30;;;15.20;99.90;;;;;;5011564;28;20053;-63
2023/10/05 08:15:01;;;;;;;11.30;3.55;;;15.20;99.90;;;;;;5003843;28;20050;-64
2023/10/05 08:17:27;;;;;;;10.13;3.45;;;15.20;99.90;;;;;;4991432;28;20046;-62
2023/10/05 08:19:54;;;;;;;12.23;3.47;;;15.30;99.90;;;;;;4991359;28;20384;-63
2023/10/05 08:22:20;;;;;;;10.10;3.17;;;15.30;99.90;;;;;;4991575;28;20451;-63
2023/10/05 08:24:47;;;;;;;10.35;3.65;;;15.40;99.90;;;;;;4996167;28;20482;-63
2023/10/05 08:27:14;;;;;;;10.43;3.40;;;15.30;99.90;;;;;;4977186;28;20046;-63
2023/10/05 08:29:42;;;;;;;9.00;3.33;;;15.40;99.90;;;;;;4992578;28;20057;-62
2023/10/05 08:32:16;;;;;;;8.40;4.43;;;15.30;99.90;;;;;;4973060;28;20054;-62
2023/10/05 08:34:45;;;;;;;9.20;3.15;;;15.30;99.90;;;;;;4974592;28;20351;-63
2023/10/05 08:37:13;;;;;;;10.35;3.70;;;15.20;99.90;;;;;;4990458;28;20039;-64
2023/10/05 08:39:39;;;;;;;11.77;3.45;;;15.40;99.90;;;;;;4998038;28;20057;-63
2023/10/05 08:42:11;;;;;;;8.90;3.88;;;15.50;99.90;;;;;;5011217;28;20046;-64
2023/10/05 08:44:43;;;;;;;7.18;3.47;;;15.60;99.90;;;;;;5010867;28;20049;-63
2023/10/05 08:47:12;;;;;;;10.75;3.65;;;15.70;99.90;;;;;;5009355;28;20065;-62
2023/10/05 08:49:43;;;;;;;9.88;3.85;;;15.70;99.90;;;;;;5013937;28;20046;-64
2023/10/05 08:52:18;;;;;;;11.95;3.78;;;15.80;99.90;;;;;;5014975;28;20050;-63
2023/10/05 08:54:46;;;;;;;9.63;4.13;;;15.80;99.90;;;;;;5014128;28;20085;-64
2023/10/05 08:57:14;;;;;;;11.05;3.65;;;15.90;99.90;;;;;;4997230;28;20351;-64
2023/10/05 08:59:45;;;;;;;9.15;3.60;;;16.10;99.90;;;;;;5014500;28;20050;-62
2023/10/05 09:02:18;;;;;;;11.40;4.00;;;16.10;99.90;;;;;;5014345;28;20110;-63
2023/10/05 09:05:07;;;;;;;11.55;4.38;;;16.20;99.90;;;;;;5014372;28;20057;-64
2023/10/05 09:07:37;;;;;;;14.18;4.20;;;16.30;99.90;;;;;;4998980;28;20050;-64
2023/10/05 09:10:14;;;;;;;12.73;3.88;;;16.30;99.90;;;;;;5014877;28;20065;-63
2023/10/05 09:12:42;;;;;;;9.05;3.65;;;16.30;99.90;;;;;;5014451;28;20046;-64
2023/10/05 09:15:21;;;;;;;9.80;3.30;;;16.40;99.90;;;;;;5013779;28;20054;-61
2023/10/05 09:17:57;;;;;;;10.90;3.85;;;16.50;99.90;;;;;;5013794;28;20104;-61
2023/10/05 09:20:30;;;;;;;9.07;4.05;;;16.50;99.90;;;;;;5014026;28;20050;-62
2023/10/05 09:23:00;;;;;;;12.43;3.50;;;16.50;99.90;;;;;;5014127;28;20136;-61
2023/10/05 09:25:34;;;;;;;8.02;3.08;;;16.60;99.90;;;;;;5013512;28;20430;-62
2023/10/05 09:28:19;;;;;;;9.90;4.10;;;16.60;99.90;;;;;;4995944;28;20058;-61
2023/10/05 09:30:57;;;;;;;10.77;3.63;;;16.60;99.90;;;;;;5013754;28;20050;-62
2023/10/05 09:33:37;;;;;;;9.50;3.72;;;16.60;99.90;;;;;;5013413;28;20081;-62
2023/10/05 09:36:19;;;;;;;11.70;4.07;;;16.50;99.90;;;;;;5013267;28;20054;-63
2023/10/05 09:38:51;;;;;;;9.55;3.47;;;16.50;99.90;;;;;;5013946;28;20084;-62
2023/10/05 09:41:25;;;;;;;13.18;3.95;;;16.40;99.90;;;;;;5009362;28;20054;-61
2023/10/05 09:44:05;;;;;;;10.50;3.85;;;16.40;99.90;;;;;;4976277;28;20120;-63
2023/10/05 09:46:35;;;;;;;11.02;4.25;;;16.40;99.90;;;;;;4994245;28;20069;-63
2023/10/05 09:49:05;;;;;;;13.13;4.10;;;16.30;99.90;;;;;;4993992;28;20050;-61
2023/10/05 09:51:35;;;;;;;6.65;3.25;;;16.30;99.90;;;;;;4993995;28;20061;-62
2023/10/05 09:54:08;;;;;;;8.45;3.80;;;16.30;99.90;;;;;;4993833;28;20065;-61
2023/10/05 09:56:42;;;;;;;10.70;3.38;;;16.20;99.90;;;;;;4993410;28;20354;-63
2023/10/05 09:59:18;;;;;;;9.75;3.20;;;16.30;99.90;;;;;;4993218;28;20058;-62
2023/10/05 10:01:50;;;;;;;10.98;3.95;;;16.30;99.90;;;;;;4992812;28;20145;-62
2023/10/05 10:04:39;;;;;;;10.27;3.67;;;16.20;99.90;;;;;;4993827;28;20104;-62
2023/10/05 10:07:22;;;;;;;11.43;3.83;;;16.30;99.90;;;;;;4986561;28;20066;-62
2023/10/05 10:09:53;;;;;;;10.15;3.85;;;16.20;99.90;;;;;;4974484;28;20050;-62
2023/10/05 10:12:33;;;;;;;12.00;3.90;;;16.10;99.90;;;;;;4974103;28;20452;-61
2023/10/05 10:15:00;;;;;;;10.38;3.33;;;16.20;99.90;;;;;;4968733;28;20063;-61
2023/10/05 10:50:45;;;;;;;18.77;4.68;;;16.80;99.90;;;;;;5105608;28;20055;-64
2023/10/05 10:53:17;;;;;;;19.90;3.70;;;16.90;99.90;;;;;;5101543;28;20203;-64
2023/10/05 10:55:51;;;;;;;15.88;4.05;;;16.90;99.90;;;;;;5103728;28;20048;-64
2023/10/05 10:58:24;;;;;;;17.50;4.78;;;17.00;99.90;;;;;;5113296;28;20048;-65
2023/10/05 11:00:56;;;;;;;21.58;4.50;;;17.00;99.90;;;;;;5106295;28;20049;-66
2023/10/05 11:03:36;;;;;;;10.63;3.28;;;16.90;99.90;;;;;;5101724;28;20127;-64
2023/10/05 11:06:09;;;;;;;18.15;3.72;;;16.90;99.90;;;;;;5119734;28;20048;-64
2023/10/05 11:08:40;;;;;;;17.13;4.57;;;17.00;99.90;;;;;;5098540;28;20062;-66
2023/10/05 11:11:19;;;;;;;16.42;4.30;;;17.00;99.90;;;;;;5105580;28;20047;-64
2023/10/05 11:13:55;;;;;;;15.40;4.38;;;17.10;99.90;;;;;;5096103;28;20111;-63
2023/10/05 11:16:32;;;;;;;15.93;3.90;;;17.20;99.90;;;;;;5103353;28;20118;-65
2023/10/05 11:18:58;;;;;;;11.00;3.22;;;17.10;99.90;;;;;;5121969;28;20040;-64
2023/10/05 11:21:26;;;;;;;12.65;3.42;;;17.10;99.90;;;;;;5127281;28;20104;-65
2023/10/05 11:23:56;;;;;;;10.77;3.40;;;17.00;99.90;;;;;;5103513;28;20051;-65
2023/10/05 11:26:28;;;;;;;12.13;3.28;;;17.00;99.90;;;;;;5105307;28;20046;-64
2023/10/05 11:28:56;;;;;;;8.88;3.92;;;17.20;99.90;;;;;;5096508;28;20118;-64
2023/10/05 11:31:34;;;;;;;8.80;3.40;;;17.10;99.90;;;;;;5099049;28;20113;-64
2023/10/05 11:34:08;;;;;;;12.88;4.20;;;17.10;99.90;;;;;;5123324;28;20344;-64
2023/10/05 11:36:39;;;;;;;8.70;3.40;;;17.20;99.90;;;;;;5119429;28;20100;-65
2023/10/05 11:39:20;;;;;;;10.90;3.30;;;17.10;99.90;;;;;;5106518;28;20048;-66
2023/10/05 11:41:48;;;;;;;13.07;3.85;;;17.20;99.90;;;;;;5120022;28;20044;-65
2023/10/05 11:44:20;;;;;;;9.85;3.65;;;17.10;99.90;;;;;;5099519;28;20043;-67
2023/10/05 11:46:48;;;;;;;13.80;3.13;;;17.20;99.90;;;;;;5081516;28;20127;-65
2023/10/05 11:49:14;;;;;;;12.65;3.63;;;17.30;99.90;;;;;;5105086;28;20047;-66
2023/10/05 11:51:54;;;;;;;9.23;2.90;;;17.30;99.90;;;;;;5068675;28;20074;-65
2023/10/05 11:54:24;;;;;;;10.77;3.40;;;17.20;99.90;;;;;;5106402;28;20040;-66
2023/10/05 11:56:53;;;;;;;15.20;3.60;;;17.30;99.90;;;;;;5083934;28;20040;-65
2023/10/05 11:59:31;;;;;;;12.57;3.42;;;17.30;99.90;;;;;;5105528;28;20050;-65
2023/10/05 12:01:57;;;;;;;14.55;3.65;;;17.20;99.90;;;;;;5088294;28;20052;-65
2023/10/05 12:04:26;;;;;;;9.20;3.42;;;17.30;99.90;;;;;;5090360;28;20439;-64
2023/10/05 12:06:58;;;;;;;11.57;2.97;;;17.30;99.90;;;;;;5081947;28;20051;-64
2023/10/05 12:09:32;;;;;;;12.23;3.10;;;17.30;99.90;;;;;;5087317;28;20055;-66
2023/10/05 12:11:59;;;;;;;11.10;3.70;;;17.40;99.90;;;;;;5087990;28;20047;-66
2023/10/05 12:14:25;;;;;;;22.95;5.22;;;17.50;99.90;;;;;;5102303;28;20055;-66
2023/10/05 12:16:56;;;;;;;21.25;5.25;;;17.60;99.90;;;;;;5084146;28;20044;-65
2023/10/05 12:19:29;;;;;;;20.73;5.28;;;17.60;99.90;;;;;;5084192;28;20558;-65
2023/10/05 12:21:59;;;;;;;18.33;4.45;;;17.70;99.90;;;;;;5087359;28;21218;-67
2023/10/05 12:24:30;;;;;;;15.57;4.15;;;17.90;99.90;;;;;;5102748;28;20112;-67
2023/10/05 12:26:59;;;;;;;12.95;3.83;;;18.00;99.90;;;;;;5085398;28;20052;-66
2023/10/05 12:29:28;;;;;;;14.13;4.10;;;18.00;99.90;;;;;;5081806;28;20059;-66
2023/10/05 12:31:56;;;;;;;12.57;3.65;;;18.10;99.90;;;;;;5103498;28;20052;-66
2023/10/05 12:34:23;;;;;;;15.38;3.53;;;17.90;99.90;;;;;;5106320;28;20157;-63
2023/10/05 12:36:50;;;;;;;12.38;3.50;;;18.00;99.90;;;;;;5083980;28;20447;-64
2023/10/05 12:39:25;;;;;;;15.27;3.53;;;18.00;99.90;;;;;;5086211;28;20081;-63
2023/10/05 12:41:54;;;;;;;16.50;3.97;;;18.00;99.90;;;;;;5102767;28;20136;-63
2023/10/05 12:44:21;;;;;;;10.25;3.17;;;18.00;99.90;;;;;;5103925;28;20448;-65
2023/10/05 12:46:47;;;;;;;8.05;2.97;;;17.90;99.90;;;;;;5102545;28;20112;-65
2023/10/05 12:49:15;;;;;;;10.02;3.20;;;17.90;99.90;;;;;;5101436;28;20305;-63
2023/10/05 12:51:44;;;;;;;10.85;3.50;;;18.00;99.90;;;;;;5085677;28;20056;-64
2023/10/05 12:54:29;;;;;;;14.27;3.28;;;18.00;99.90;;;;;;5102877;28;20043;-65
2023/10/05 12:56:57;;;;;;;14.05;4.15;;;18.10;99.90;;;;;;5083820;28;20058;-66
2023/10/05 12:59:24;;;;;;;17.00;3.72;;;18.20;99.90;;;;;;5082950;28;20040;-65
2023/10/05 13:01:51;;;;;;;12.23;3.25;;;18.40;99.90;;;;;;5099587;28;20043;-64
2023/10/05 13:04:18;;;;;;;13.00;3.20;;;18.40;99.90;;;;;;5073253;28;20047;-64
2023/10/05 13:06:45;;;;;;;14.57;4.00;;;18.40;99.90;;;;;;5100542;28;20063;-64
2023/10/05 13:09:13;;;;;;;9.15;2.97;;;18.40;99.90;;;;;;5102194;28;20050;-64
2023/10/05 13:11:40;;;;;;;17.02;4.05;;;18.40;99.90;;;;;;5099331;28;20048;-65
2023/10/05 13:14:09;;;;;;;17.55;3.70;;;18.40;99.90;;;;;;5106215;28;20116;-64
2023/10/05 13:16:36;;;;;;;16.48;3.53;;;18.40;99.90;;;;;;5101609;28;20105;-64
2023/10/05 13:19:09;;;;;;;14.60;3.58;;;18.40;99.90;;;;;;5078587;28;20120;-65
2023/10/05 13:21:36;;;;;;;13.93;3.08;;;18.60;99.90;;;;;;5087542;28;20043;-64
2023/10/05 13:24:03;;;;;;;16.13;5.13;;;18.60;99.90;;;;;;5070832;28;20097;-64
2023/10/05 13:26:29;;;;;;;18.30;3.80;;;18.70;99.90;;;;;;5113329;28;20052;-64
2023/10/05 13:28:59;;;;;;;13.20;3.72;;;18.70;99.90;;;;;;5078368;28;20070;-65
2023/10/05 13:31:26;;;;;;;13.57;2.70;;;18.70;99.90;;;;;;5102081;28;20104;-66
2023/10/05 13:33:55;;;;;;;13.35;3.83;;;18.90;99.90;;;;;;5108065;28;20047;-65
2023/10/05 13:36:21;;;;;;;10.38;3.20;;;18.80;99.90;;;;;;5087770;28;20040;-66
2023/10/05 13:38:48;;;;;;;12.38;3.67;;;18.90;99.90;;;;;;5081388;28;20131;-62
2023/10/05 13:41:14;;;;;;;15.10;3.80;;;18.90;99.90;;;;;;5107845;28;20039;-64
2023/10/05 13:43:41;;;;;;;17.25;3.47;;;18.90;99.90;;;;;;5105168;28;20128;-64
2023/10/05 13:46:18;;;;;;;10.90;3.50;;;18.90;99.90;;;;;;5104945;28;20052;-65